createdAt,value
2019-03-29T00:02:17.780Z,33.60
2019-03-29T00:07:38.565Z,35.43
2019-03-29T00:12:32.735Z,38.73
2019-03-29T00:17:39.705Z,41.07
2019-03-29T00:22:46.464Z,38.73
2019-03-29T00:27:54.389Z,34.93
2019-03-29T00:33:02.000Z,43.23
2019-03-29T00:38:08.801Z,36.97
2019-03-29T00:43:16.633Z,43.53
2019-03-29T00:48:23.269Z,38.40
2019-03-29T00:53:30.760Z,37.23
2019-03-29T00:58:38.943Z,33.93
2019-03-29T01:03:45.464Z,36.70
2019-03-29T01:08:54.862Z,41.80
2019-03-29T01:14:01.668Z,36.87
2019-03-29T01:19:08.447Z,34.33
2019-03-29T01:24:16.237Z,35.83
2019-03-29T01:29:23.831Z,37.00
2019-03-29T01:34:30.575Z,36.73
2019-03-29T01:39:38.510Z,35.57
2019-03-29T01:44:45.332Z,38.97
2019-03-29T01:49:55.423Z,33.27
2019-03-29T01:55:02.268Z,39.00
2019-03-29T02:00:10.355Z,35.67
2019-03-29T02:05:17.049Z,34.53
2019-03-29T02:10:24.200Z,33.13
2019-03-29T02:15:33.541Z,32.47
2019-03-29T02:20:40.141Z,36.23
2019-03-29T02:25:46.758Z,32.43
2019-03-29T02:30:56.154Z,32.50
2019-03-29T02:36:05.734Z,32.77
2019-03-29T02:41:14.677Z,39.77
2019-03-29T02:46:21.403Z,36.80
2019-03-29T02:51:28.887Z,38.93
2019-03-29T02:56:35.677Z,35.03
2019-03-29T03:01:42.407Z,35.43
2019-03-29T03:06:49.077Z,36.63
2019-03-29T03:11:57.161Z,35.13
2019-03-29T03:17:04.876Z,33.30
2019-03-29T03:22:11.434Z,33.00
2019-03-29T03:27:19.669Z,34.33
2019-03-29T03:32:26.636Z,34.23
2019-03-29T03:37:33.473Z,35.30
2019-03-29T03:42:40.235Z,35.87
2019-03-29T03:47:58.134Z,33.33
2019-03-29T03:53:04.831Z,36.33
2019-03-29T03:58:13.207Z,36.13
2019-03-29T04:03:21.950Z,38.03
2019-03-29T04:08:28.573Z,40.00
2019-03-29T04:13:35.942Z,33.27
2019-03-29T04:18:42.767Z,36.20
2019-03-29T04:23:50.741Z,34.87
2019-03-29T04:29:04.623Z,35.30
2019-03-29T04:34:08.851Z,35.57
2019-03-29T04:39:15.604Z,38.17
2019-03-29T04:44:23.820Z,37.77
2019-03-29T04:49:33.245Z,36.87
2019-03-29T04:54:39.779Z,36.53
2019-03-29T04:59:46.429Z,37.60
2019-03-29T05:04:53.128Z,39.73
2019-03-29T05:09:59.729Z,43.70
2019-03-29T05:15:08.286Z,37.63
2019-03-29T05:20:15.060Z,39.90
2019-03-29T05:25:22.773Z,43.73
2019-03-29T05:30:31.037Z,49.70
2019-03-29T05:35:40.185Z,42.00
2019-03-29T05:40:49.093Z,42.30
2019-03-29T05:45:55.711Z,51.77
2019-03-29T05:51:02.354Z,45.97
2019-03-29T05:56:08.946Z,42.93
2019-03-29T06:01:15.709Z,47.83
2019-03-29T06:06:22.481Z,45.10
2019-03-29T06:11:31.688Z,39.43
2019-03-29T06:16:42.193Z,39.23
2019-03-29T06:21:48.971Z,36.30
2019-03-29T06:26:55.775Z,32.03
2019-03-29T06:32:02.564Z,34.50
2019-03-29T06:37:11.306Z,32.60
2019-03-29T06:42:19.217Z,44.37
2019-03-29T06:47:27.792Z,35.27
2019-03-29T06:52:34.416Z,31.07
2019-03-29T06:57:41.120Z,30.70
2019-03-29T07:02:48.833Z,33.50
2019-03-29T07:07:55.633Z,29.50
2019-03-29T07:13:02.243Z,40.67
2019-03-29T07:18:09.049Z,38.70
2019-03-29T07:23:16.618Z,33.10
2019-03-29T07:28:23.310Z,29.10
2019-03-29T07:33:31.325Z,30.13
2019-03-29T07:38:38.252Z,26.10
2019-03-29T07:43:45.892Z,24.23
2019-03-29T07:48:52.657Z,22.50
2019-03-29T07:53:59.458Z,23.67
2019-03-29T07:59:06.467Z,22.70
2019-03-29T08:04:15.113Z,19.70
2019-03-29T08:09:22.876Z,18.87
2019-03-29T08:14:29.779Z,20.47
2019-03-29T08:19:37.299Z,16.97
2019-03-29T08:24:45.605Z,17.13
2019-03-29T08:29:52.448Z,14.97
2019-03-29T08:34:59.185Z,10.63
2019-03-29T08:40:06.489Z,11.53
2019-03-29T08:45:13.448Z,8.40
2019-03-29T08:50:20.169Z,7.53
2019-03-29T08:55:26.955Z,8.77
2019-03-29T09:00:34.935Z,10.43
2019-03-29T09:05:42.124Z,12.10
2019-03-29T09:10:48.844Z,5.27
2019-03-29T09:15:55.592Z,5.20
2019-03-29T09:21:04.359Z,6.10
2019-03-29T09:26:13.046Z,5.23
2019-03-29T09:31:21.273Z,6.73
2019-03-29T09:36:28.910Z,4.30
2019-03-29T09:41:35.802Z,2.03
2019-03-29T09:46:43.920Z,2.80
2019-03-29T09:51:50.822Z,2.73
2019-03-29T09:56:58.434Z,4.00
2019-03-29T10:02:05.379Z,2.43
2019-03-29T10:07:12.067Z,3.53
2019-03-29T10:12:20.823Z,5.50
2019-03-29T10:17:27.808Z,4.40
2019-03-29T10:22:34.628Z,4.13
2019-03-29T10:27:42.367Z,5.77
2019-03-29T10:32:49.122Z,6.63
2019-03-29T10:37:56.672Z,6.17
2019-03-29T10:43:03.293Z,5.03
2019-03-29T10:48:10.050Z,7.23
2019-03-29T10:53:16.903Z,7.97
2019-03-29T10:58:23.613Z,7.87
2019-03-29T11:03:30.285Z,16.47
2019-03-29T11:08:37.105Z,10.23
2019-03-29T11:13:44.653Z,10.80
2019-03-29T11:18:52.808Z,11.70
2019-03-29T11:24:00.595Z,9.00
2019-03-29T11:29:08.477Z,10.43
2019-03-29T11:34:15.249Z,8.73
2019-03-29T11:39:23.082Z,9.67
2019-03-29T11:44:30.930Z,10.53
2019-03-29T11:49:37.735Z,7.73
2019-03-29T11:54:44.392Z,9.40
2019-03-29T11:59:51.981Z,7.90
2019-03-29T12:04:58.973Z,8.03
2019-03-29T12:10:06.521Z,8.47
2019-03-29T12:15:13.758Z,9.70
2019-03-29T12:20:21.780Z,8.97
2019-03-29T12:25:28.425Z,7.47
2019-03-29T12:30:36.553Z,8.10
2019-03-29T12:35:44.305Z,5.47
2019-03-29T12:40:52.290Z,4.25
2019-03-29T12:45:59.109Z,4.42
2019-03-29T12:51:05.799Z,8.38
2019-03-29T12:56:13.992Z,4.47
2019-03-29T13:01:20.665Z,3.62
2019-03-29T13:06:28.621Z,3.52
2019-03-29T13:11:35.227Z,2.55
2019-03-29T13:16:41.876Z,3.00
2019-03-29T13:21:50.394Z,3.12
2019-03-29T13:26:57.161Z,3.10
2019-03-29T13:32:05.105Z,4.62
2019-03-29T13:37:11.785Z,4.92
2019-03-29T13:42:18.750Z,3.58
2019-03-29T13:47:27.192Z,3.27
2019-03-29T13:52:33.713Z,2.98
2019-03-29T13:57:40.375Z,3.27
2019-03-29T14:02:47.000Z,4.20
2019-03-29T14:07:53.698Z,9.23
2019-03-29T14:13:00.376Z,5.60
2019-03-29T14:18:08.249Z,5.22
2019-03-29T14:23:15.036Z,5.17
2019-03-29T14:28:23.064Z,4.50
2019-03-29T14:33:29.992Z,5.33
2019-03-29T14:38:38.484Z,5.03
2019-03-29T14:43:46.356Z,6.37
2019-03-29T14:48:53.261Z,5.37
2019-03-29T14:53:59.897Z,6.70
2019-03-29T14:59:07.658Z,7.40
2019-03-29T15:04:14.347Z,6.77
2019-03-29T15:09:21.116Z,7.00
2019-03-29T15:14:28.746Z,9.63
2019-03-29T15:19:35.393Z,9.40
2019-03-29T15:24:42.961Z,9.13
2019-03-29T15:29:49.613Z,9.07
2019-03-29T15:34:56.232Z,9.53
2019-03-29T15:40:02.869Z,9.33
2019-03-29T15:45:20.293Z,10.53
2019-03-29T15:50:19.604Z,9.07
2019-03-29T15:55:28.760Z,14.03
2019-03-29T16:00:35.545Z,10.87
2019-03-29T16:05:42.302Z,7.87
2019-03-29T16:10:50.857Z,12.20
2019-03-29T16:16:00.640Z,12.47
2019-03-29T16:21:07.283Z,11.00
2019-03-29T16:26:13.979Z,10.77
2019-03-29T16:31:22.259Z,10.90
2019-03-29T16:36:29.114Z,13.57
2019-03-29T16:41:36.087Z,10.77
2019-03-29T16:46:42.846Z,19.03
2019-03-29T16:51:50.949Z,14.70
2019-03-29T16:56:57.740Z,13.43
2019-03-29T17:02:04.601Z,15.00
2019-03-29T17:07:11.374Z,11.53
2019-03-29T17:12:19.813Z,12.03
2019-03-29T17:17:26.532Z,14.90
2019-03-29T17:22:33.161Z,13.87
2019-03-29T17:27:41.495Z,20.23
2019-03-29T17:32:49.548Z,18.27
2019-03-29T17:37:56.142Z,38.57
2019-03-29T17:43:04.061Z,39.23
2019-03-29T17:48:10.720Z,29.70
2019-03-29T17:53:17.495Z,20.77
2019-03-29T17:58:24.120Z,19.07
2019-03-29T18:03:30.951Z,15.97
2019-03-29T18:08:38.835Z,15.83
2019-03-29T18:13:45.587Z,14.93
2019-03-29T18:18:52.286Z,25.10
2019-03-29T18:23:58.869Z,17.67
2019-03-29T18:29:05.653Z,18.70
2019-03-29T18:34:12.477Z,15.90
2019-03-29T18:39:19.348Z,16.97
2019-03-29T18:44:25.809Z,19.43
2019-03-29T18:49:32.537Z,15.33
2019-03-29T18:54:39.248Z,14.33
2019-03-29T18:59:47.078Z,17.23
2019-03-29T19:04:53.885Z,15.73
2019-03-29T19:10:00.510Z,29.33
2019-03-29T19:15:07.699Z,16.37
2019-03-29T19:20:26.754Z,17.67
2019-03-29T19:25:23.052Z,23.27
2019-03-29T19:30:30.011Z,18.50
2019-03-29T19:35:38.502Z,19.10
2019-03-29T19:40:45.304Z,22.70
2019-03-29T19:45:51.917Z,17.80
2019-03-29T19:50:58.594Z,15.47
2019-03-29T19:56:05.357Z,46.00
2019-03-29T20:01:11.992Z,15.93
2019-03-29T20:06:18.861Z,17.90
2019-03-29T20:11:25.449Z,19.63
2019-03-29T20:16:32.245Z,21.13
2019-03-29T20:21:40.188Z,22.80
2019-03-29T20:26:47.270Z,21.67
2019-03-29T20:31:53.992Z,17.43
2019-03-29T20:37:01.673Z,18.07
2019-03-29T20:42:08.258Z,20.17
2019-03-29T20:47:15.130Z,16.13
2019-03-29T20:52:21.706Z,15.37
2019-03-29T20:57:28.369Z,14.17
2019-03-29T21:02:35.042Z,17.27
2019-03-29T21:07:41.608Z,15.50
2019-03-29T21:12:48.407Z,23.47
2019-03-29T21:17:57.500Z,15.63
2019-03-29T21:23:03.398Z,12.80
2019-03-29T21:28:10.049Z,16.23
2019-03-29T21:33:16.639Z,16.20
2019-03-29T21:38:23.327Z,15.90
2019-03-29T21:43:30.096Z,15.60
2019-03-29T21:48:36.890Z,18.33
2019-03-29T21:53:43.999Z,24.60
2019-03-29T21:58:50.677Z,26.37
2019-03-29T22:03:57.487Z,21.70
2019-03-29T22:09:05.801Z,23.23
2019-03-29T22:14:14.291Z,22.73
2019-03-29T22:19:20.788Z,26.17
2019-03-29T22:24:27.629Z,24.83
2019-03-29T22:29:34.265Z,31.67
2019-03-29T22:34:41.234Z,33.17
2019-03-29T22:39:48.023Z,28.73
2019-03-29T22:44:54.901Z,30.67
2019-03-29T22:50:02.527Z,30.13
2019-03-29T22:55:09.576Z,29.97
2019-03-29T23:00:21.647Z,34.07
2019-03-29T23:05:30.036Z,31.40
2019-03-29T23:10:36.688Z,34.30
2019-03-29T23:15:43.515Z,34.60
2019-03-29T23:20:50.178Z,33.47
2019-03-29T23:25:57.015Z,33.83
2019-03-29T23:31:05.592Z,33.00
2019-03-29T23:36:11.888Z,32.57
2019-03-29T23:41:18.445Z,32.13
2019-03-29T23:46:25.169Z,32.23
2019-03-29T23:51:32.051Z,36.17
2019-03-29T23:56:38.735Z,36.10
